Time;durP1;ratioP1;P1;durP2;ratioP2;P2;SDS_P1;SDS_P2;PMS_P1;PMS_P2;Temp;Humidity;BMP_temperature;BMP_pressure;BME280_temperature;BME280_humidity;BME280_pressure;Samples;Min_cycle;Max_cycle;Signal;HPM_P1;HPM_P2
2022/05/28 00:01:06;;;;;;;4.75;2.83;;;23.30;99.90;;;;;;5037871;28;20368;-73
2022/05/28 00:03:33;;;;;;;4.32;3.47;;;23.90;99.90;;;;;;5042228;28;20392;-72
2022/05/28 00:06:01;;;;;;;4.28;3.17;;;23.90;99.70;;;;;;5049292;28;20028;-72
2022/05/28 00:08:29;;;;;;;4.70;3.40;;;23.90;99.70;;;;;;5038502;28;20462;-72
2022/05/28 00:10:58;;;;;;;4.90;2.85;;;24.10;99.70;;;;;;5040260;28;20017;-72
2022/05/28 00:13:26;;;;;;;2.00;1.70;;;24.60;99.50;;;;;;5034503;28;20057;-72
2022/05/28 00:15:53;;;;;;;2.20;1.80;;;24.80;98.50;;;;;;5037749;28;20134;-73
2022/05/28 00:18:21;;;;;;;3.55;2.38;;;24.20;98.60;;;;;;5037882;28;20029;-72
2022/05/28 00:20:49;;;;;;;2.08;1.73;;;23.30;99.40;;;;;;5036520;28;20029;-72
2022/05/28 00:23:16;;;;;;;2.88;2.22;;;23.20;99.70;;;;;;5034944;28;20029;-72
2022/05/28 00:25:43;;;;;;;3.65;2.90;;;23.60;99.90;;;;;;5047813;28;20479;-72
2022/05/28 00:28:10;;;;;;;2.65;2.20;;;24.10;99.40;;;;;;5052347;28;20041;-72
2022/05/28 00:30:38;;;;;;;3.90;2.63;;;23.80;99.20;;;;;;5036613;28;20472;-72
2022/05/28 00:33:05;;;;;;;3.05;2.10;;;23.60;99.30;;;;;;5036697;28;20033;-72
2022/05/28 00:35:33;;;;;;;4.60;3.10;;;23.60;99.90;;;;;;5038653;28;20511;-72
2022/05/28 00:38:00;;;;;;;4.30;1.98;;;24.20;99.00;;;;;;5049255;28;20048;-72
2022/05/28 00:40:28;;;;;;;3.05;2.45;;;24.40;99.00;;;;;;5047865;28;20111;-72
2022/05/28 00:43:01;;;;;;;2.58;1.83;;;24.00;98.60;;;;;;5050971;28;20439;-72
2022/05/28 00:45:30;;;;;;;3.03;2.35;;;23.50;98.60;;;;;;5046007;28;20029;-71
2022/05/28 00:48:01;;;;;;;2.10;1.90;;;22.80;99.90;;;;;;5053196;28;20395;-72
2022/05/28 00:50:33;;;;;;;2.92;2.25;;;22.10;99.90;;;;;;5044268;28;20049;-71
2022/05/28 00:53:02;;;;;;;4.40;3.17;;;21.80;99.90;;;;;;5051379;28;20365;-71
2022/05/28 00:55:33;;;;;;;3.25;2.75;;;21.60;99.90;;;;;;5050211;28;20029;-71
2022/05/28 00:58:03;;;;;;;4.93;3.65;;;21.20;99.90;;;;;;5042033;28;20680;-71
2022/05/28 01:00:33;;;;;;;4.07;3.03;;;21.00;99.90;;;;;;5032895;28;20033;-72
2022/05/28 01:03:24;;;;;;;3.13;2.85;;;20.80;99.90;;;;;;5049242;28;20497;-72
2022/05/28 01:06:04;;;;;;;4.10;3.08;;;20.90;99.90;;;;;;5041110;28;20373;-72
2022/05/28 01:08:59;;;;;;;3.72;3.25;;;21.40;99.90;;;;;;5032407;28;20084;-71
2022/05/28 01:11:54;;;;;;;5.63;3.30;;;22.20;99.90;;;;;;5047749;28;20506;-73
2022/05/28 01:14:28;;;;;;;3.55;2.92;;;22.80;99.90;;;;;;5032933;28;20040;-71
2022/05/28 01:17:21;;;;;;;2.80;2.58;;;23.40;99.90;;;;;;5032494;28;20025;-73
2022/05/28 01:20:04;;;;;;;2.22;1.83;;;23.90;99.90;;;;;;5044280;28;20037;-75
2022/05/28 01:23:08;;;;;;;2.97;2.78;;;24.00;99.90;;;;;;5048271;28;20025;-73
2022/05/28 01:26:00;;;;;;;3.25;2.20;;;25.70;98.50;;;;;;5026707;28;20468;-73
2022/05/28 01:28:34;;;;;;;2.65;2.13;;;27.00;96.30;;;;;;5030827;28;20039;-73
2022/05/28 01:31:05;;;;;;;1.83;1.50;;;27.30;95.70;;;;;;5047933;28;20506;-72
2022/05/28 01:33:35;;;;;;;2.85;2.30;;;27.50;94.70;;;;;;5033320;28;20347;-72
2022/05/28 01:36:06;;;;;;;2.30;1.88;;;27.90;93.80;;;;;;5035487;28;20036;-70
2022/05/28 01:38:37;;;;;;;2.63;2.15;;;28.10;94.30;;;;;;5043068;28;20025;-70
2022/05/28 01:41:07;;;;;;;2.25;2.00;;;28.30;94.50;;;;;;5049773;28;20033;-72
2022/05/28 01:43:40;;;;;;;2.63;1.92;;;28.50;93.70;;;;;;5050399;28;20032;-73
2022/05/28 01:46:09;;;;;;;2.63;2.05;;;29.00;92.80;;;;;;5049802;28;20064;-73
2022/05/28 01:48:39;;;;;;;2.03;1.63;;;29.30;92.30;;;;;;5047446;28;20131;-72
2022/05/28 01:51:08;;;;;;;3.50;1.55;;;28.90;92.60;;;;;;5047844;28;20483;-73
2022/05/28 01:56:23;;;;;;;3.58;1.45;;;28.90;93.00;;;;;;5049548;28;20044;-72
2022/05/28 01:58:51;;;;;;;1.60;1.33;;;29.40;91.60;;;;;;5038925;28;20506;-72
2022/05/28 02:01:19;;;;;;;1.52;1.20;;;29.40;91.00;;;;;;5031867;28;20060;-73
2022/05/28 02:03:51;;;;;;;1.40;1.30;;;28.80;91.10;;;;;;5044406;28;20028;-73
2022/05/28 02:06:19;;;;;;;2.03;1.20;;;27.60;91.60;;;;;;5043232;28;20503;-72
2022/05/28 02:08:49;;;;;;;1.90;1.05;;;26.70;93.20;;;;;;5048552;28;20040;-73
2022/05/28 02:11:26;;;;;;;2.53;1.00;;;26.40;93.50;;;;;;5048887;28;20100;-73
2022/05/28 02:14:06;;;;;;;2.05;1.10;;;27.30;93.00;;;;;;5048361;28;20474;-70
2022/05/28 02:17:04;;;;;;;1.25;0.95;;;28.00;92.30;;;;;;5032326;28;20081;-73
2022/05/28 02:19:56;;;;;;;2.63;0.95;;;28.30;92.00;;;;;;5040234;28;20527;-73
2022/05/28 02:22:35;;;;;;;4.00;0.82;;;29.30;91.60;;;;;;5047885;28;20361;-70
2022/05/28 02:25:17;;;;;;;3.08;1.63;;;29.70;90.30;;;;;;5048874;28;20044;-71
2022/05/28 02:27:47;;;;;;;1.85;1.25;;;29.30;91.00;;;;;;5036546;28;20025;-71
2022/05/28 02:30:15;;;;;;;2.05;0.85;;;28.60;90.70;;;;;;5038623;28;20029;-70
2022/05/28 02:32:42;;;;;;;0.95;0.85;;;27.40;91.50;;;;;;5031180;28;20022;-70
2022/05/28 02:35:11;;;;;;;1.15;0.90;;;26.50;92.40;;;;;;5030780;28;20034;-71
2022/05/28 02:37:39;;;;;;;1.00;0.45;;;26.10;92.60;;;;;;5030599;28;20037;-72
2022/05/28 02:40:07;;;;;;;2.08;0.60;;;25.60;92.90;;;;;;5036998;28;20064;-71
2022/05/28 02:42:36;;;;;;;0.65;0.50;;;24.90;93.30;;;;;;5029392;28;20057;-72
2022/05/28 02:45:04;;;;;;;2.58;0.63;;;25.00;94.00;;;;;;5038307;28;20033;-70
2022/05/28 02:47:31;;;;;;;3.03;0.55;;;24.90;94.00;;;;;;5030612;28;20037;-71
2022/05/28 02:49:58;;;;;;;0.80;0.60;;;24.60;93.70;;;;;;5037467;28;20029;-72
2022/05/28 02:52:26;;;;;;;0.77;0.55;;;24.30;94.90;;;;;;5031651;28;20372;-71
2022/05/28 02:54:53;;;;;;;2.38;0.65;;;24.00;95.10;;;;;;5041699;28;20116;-70
2022/05/28 02:57:20;;;;;;;1.80;0.60;;;23.70;95.00;;;;;;5031142;28;20025;-70
2022/05/28 02:59:48;;;;;;;0.65;0.45;;;23.30;95.40;;;;;;5036679;28;20392;-72
2022/05/28 03:02:15;;;;;;;1.15;0.75;;;23.10;96.00;;;;;;5050749;28;20104;-72
2022/05/28 03:04:42;;;;;;;1.15;0.47;;;23.00;96.30;;;;;;5043521;28;20099;-72
2022/05/28 03:07:10;;;;;;;2.22;0.65;;;22.90;95.50;;;;;;5030763;28;20025;-72
2022/05/28 03:09:37;;;;;;;0.82;0.80;;;22.70;95.90;;;;;;5038211;28;20111;-70
2022/05/28 03:12:05;;;;;;;1.33;0.77;;;22.50;96.60;;;;;;5050226;28;20021;-71
2022/05/28 03:14:32;;;;;;;0.95;0.63;;;22.50;96.80;;;;;;5044828;28;20083;-70
2022/05/28 03:16:59;;;;;;;0.90;0.70;;;22.40;97.00;;;;;;5050233;28;20033;-73
2022/05/28 03:19:27;;;;;;;0.85;0.60;;;22.40;97.00;;;;;;5048702;28;20123;-71
2022/05/28 03:21:54;;;;;;;1.30;0.60;;;22.40;97.10;;;;;;5050311;28;20025;-71
2022/05/28 03:24:21;;;;;;;1.23;0.80;;;22.40;97.80;;;;;;5046144;28;20098;-73
2022/05/28 03:26:48;;;;;;;1.08;0.85;;;22.30;97.70;;;;;;5036744;28;20037;-72
2022/05/28 03:29:16;;;;;;;1.83;1.05;;;22.30;97.70;;;;;;5033222;28;20033;-71
2022/05/28 03:31:43;;;;;;;1.02;0.35;;;22.30;98.20;;;;;;5049405;28;20082;-71
2022/05/28 03:34:10;;;;;;;1.02;0.80;;;22.30;98.90;;;;;;5051386;28;20033;-71
2022/05/28 03:36:38;;;;;;;0.43;0.40;;;22.20;99.00;;;;;;5044395;28;20026;-72
2022/05/28 03:39:05;;;;;;;1.40;0.82;;;22.10;98.80;;;;;;5039939;28;20048;-72
2022/05/28 03:41:33;;;;;;;2.90;0.77;;;22.20;98.80;;;;;;5044246;28;20116;-69
2022/05/28 03:44:00;;;;;;;2.13;0.57;;;22.20;99.20;;;;;;5050316;28;20063;-71
2022/05/28 03:46:32;;;;;;;0.68;0.40;;;22.10;99.10;;;;;;5053764;28;20477;-71
2022/05/28 03:49:21;;;;;;;0.73;0.40;;;22.10;99.30;;;;;;5051427;28;20142;-71
2022/05/28 03:51:50;;;;;;;0.63;0.43;;;22.20;99.10;;;;;;5050033;28;20028;-72
2022/05/28 03:54:17;;;;;;;2.38;0.80;;;22.20;98.70;;;;;;5052055;28;20132;-72
2022/05/28 03:56:46;;;;;;;0.73;0.52;;;22.20;99.10;;;;;;5042960;28;20108;-72
2022/05/28 03:59:13;;;;;;;0.68;0.30;;;22.10;99.00;;;;;;5045399;28;20041;-72
2022/05/28 04:01:41;;;;;;;1.00;0.40;;;22.10;97.60;;;;;;5050173;28;20029;-72
2022/05/28 04:04:08;;;;;;;0.30;0.20;;;21.90;97.50;;;;;;5034415;28;20112;-72
2022/05/28 04:06:37;;;;;;;1.20;0.35;;;22.00;96.40;;;;;;5047770;28;20432;-72
2022/05/28 04:09:06;;;;;;;1.33;0.60;;;22.10;97.20;;;;;;5048531;28;20017;-72
2022/05/28 04:11:35;;;;;;;1.30;0.30;;;22.10;97.00;;;;;;5043739;28;20554;-71
2022/05/28 04:14:03;;;;;;;0.28;0.20;;;22.10;97.00;;;;;;5044447;28;20487;-72
2022/05/28 04:16:31;;;;;;;0.60;0.40;;;21.90;96.60;;;;;;5039189;28;20028;-72
2022/05/28 04:18:59;;;;;;;2.83;1.27;;;21.60;97.10;;;;;;5047160;28;20025;-71
2022/05/28 04:21:26;;;;;;;0.63;0.40;;;21.50;97.70;;;;;;5048040;28;20120;-71
2022/05/28 04:23:53;;;;;;;0.30;0.20;;;21.50;97.10;;;;;;5050872;28;20087;-71
2022/05/28 04:26:21;;;;;;;0.20;0.10;;;21.40;97.00;;;;;;5052013;28;20088;-71
2022/05/28 04:28:48;;;;;;;0.32;0.13;;;21.30;96.80;;;;;;5043971;28;20375;-72
2022/05/28 04:31:15;;;;;;;1.17;0.10;;;21.20;96.60;;;;;;5050556;28;20033;-72
2022/05/28 04:33:43;;;;;;;0.95;0.10;;;21.20;96.30;;;;;;5052978;28;20024;-72
2022/05/28 04:36:10;;;;;;;0.03;0.00;;;21.10;96.10;;;;;;5049720;28;20510;-72
2022/05/28 04:38:37;;;;;;;0.10;0.00;;;21.00;96.30;;;;;;5046092;28;20044;-72
2022/05/28 04:41:05;;;;;;;0.20;0.00;;;21.00;96.50;;;;;;5038560;28;20392;-72
2022/05/28 04:43:32;;;;;;;0.22;0.10;;;21.00;96.30;;;;;;5037814;28;20025;-72
2022/05/28 04:45:59;;;;;;;0.03;0.00;;;21.00;96.30;;;;;;5049894;28;20017;-72
2022/05/28 04:48:27;;;;;;;0.10;0.10;;;20.90;96.60;;;;;;5047550;28;20128;-73
2022/05/28 04:50:54;;;;;;;0.20;0.10;;;20.90;96.30;;;;;;5036056;28;20033;-72
2022/05/28 04:53:22;;;;;;;0.20;0.00;;;20.80;96.50;;;;;;5032762;28;20029;-72
2022/05/28 04:55:49;;;;;;;0.10;0.10;;;20.80;96.80;;;;;;5038030;28;20036;-71
2022/05/28 04:58:17;;;;;;;0.40;0.20;;;20.80;97.00;;;;;;5032425;28;20053;-72
2022/05/28 05:00:46;;;;;;;0.38;0.10;;;20.70;97.40;;;;;;5043138;28;20071;-71
2022/05/28 05:03:14;;;;;;;0.25;0.10;;;20.60;97.00;;;;;;5050600;28;20028;-72
2022/05/28 05:05:42;;;;;;;0.55;0.05;;;20.60;97.20;;;;;;5050197;28;20029;-71
2022/05/28 05:08:09;;;;;;;0.20;0.10;;;20.60;97.20;;;;;;5051247;28;20471;-71
2022/05/28 05:10:37;;;;;;;0.30;0.10;;;20.60;97.10;;;;;;5035443;28;20220;-70
2022/05/28 05:13:06;;;;;;;0.30;0.20;;;20.60;97.10;;;;;;5038376;28;20034;-72
2022/05/28 05:15:34;;;;;;;1.70;0.88;;;20.60;97.30;;;;;;5043814;28;20628;-71
2022/05/28 05:18:01;;;;;;;0.50;0.20;;;20.70;97.10;;;;;;5051284;28;20044;-72
2022/05/28 05:20:28;;;;;;;0.55;0.20;;;20.80;97.20;;;;;;5047354;28;20037;-71
2022/05/28 05:22:56;;;;;;;0.30;0.25;;;20.70;97.00;;;;;;5031419;28;20028;-72
2022/05/28 05:25:24;;;;;;;0.52;0.20;;;20.80;96.90;;;;;;5035982;28;20476;-73
2022/05/28 05:27:51;;;;;;;0.45;0.20;;;20.80;97.10;;;;;;5031496;28;20105;-72
2022/05/28 05:30:19;;;;;;;0.32;0.20;;;20.80;97.30;;;;;;5036435;28;20014;-73
2022/05/28 05:32:46;;;;;;;1.45;0.30;;;20.80;97.20;;;;;;5030074;28;20041;-72
2022/05/28 05:35:14;;;;;;;0.88;0.10;;;20.80;97.50;;;;;;5033453;28;20025;-72
2022/05/28 05:37:41;;;;;;;0.25;0.13;;;20.70;97.40;;;;;;5040137;28;20025;-72
2022/05/28 05:40:10;;;;;;;0.73;0.20;;;20.70;97.40;;;;;;5030100;28;20041;-73
2022/05/28 05:42:37;;;;;;;0.50;0.20;;;20.70;97.20;;;;;;5038217;28;20471;-72
2022/05/28 05:45:05;;;;;;;1.38;0.50;;;20.60;97.40;;;;;;5046452;28;20033;-73
2022/05/28 05:47:33;;;;;;;1.30;0.70;;;20.60;97.70;;;;;;5039782;28;20025;-72
2022/05/28 05:50:00;;;;;;;0.88;0.70;;;20.70;99.10;;;;;;5031907;28;20133;-72
2022/05/28 05:52:28;;;;;;;1.55;0.75;;;20.60;99.90;;;;;;5031841;28;20028;-72
2022/05/28 05:54:55;;;;;;;1.33;0.57;;;20.40;99.90;;;;;;5032479;28;20040;-71
2022/05/28 05:57:22;;;;;;;1.02;0.65;;;20.10;99.90;;;;;;5044115;28;20535;-71
2022/05/28 05:59:50;;;;;;;1.65;0.30;;;19.70;99.90;;;;;;5043295;28;20037;-69
2022/05/28 06:02:17;;;;;;;1.25;0.60;;;19.40;99.90;;;;;;5036319;28;20025;-70
2022/05/28 06:04:44;;;;;;;1.25;0.80;;;19.20;99.90;;;;;;5042673;28;20487;-71
2022/05/28 06:07:12;;;;;;;1.13;0.60;;;19.10;99.90;;;;;;5043922;28;20035;-71
2022/05/28 06:09:40;;;;;;;0.93;0.30;;;19.00;99.90;;;;;;5044675;28;20024;-70
2022/05/28 06:12:08;;;;;;;2.05;0.30;;;19.10;99.90;;;;;;5032131;28;20033;-70
2022/05/28 06:14:35;;;;;;;0.70;0.20;;;19.20;99.90;;;;;;5044878;28;20021;-71
2022/05/28 06:17:03;;;;;;;0.50;0.35;;;19.20;99.90;;;;;;5045641;28;20037;-71
2022/05/28 06:19:30;;;;;;;1.95;0.40;;;19.30;99.90;;;;;;5043431;28;20167;-70
2022/05/28 06:22:02;;;;;;;1.67;0.50;;;19.40;99.90;;;;;;5037946;28;20021;-71
2022/05/28 06:24:29;;;;;;;0.82;0.43;;;19.40;99.90;;;;;;5047913;28;20028;-72
2022/05/28 06:27:03;;;;;;;3.70;0.47;;;19.30;99.90;;;;;;5046933;28;20028;-72
2022/05/28 06:29:31;;;;;;;1.73;0.38;;;19.30;99.90;;;;;;5048941;28;20510;-72
2022/05/28 06:31:58;;;;;;;2.53;0.90;;;19.20;99.90;;;;;;5051065;28;20021;-72
2022/05/28 06:34:26;;;;;;;4.00;2.47;;;19.10;99.90;;;;;;5049243;28;20033;-71
2022/05/28 06:36:53;;;;;;;2.35;1.70;;;18.90;99.90;;;;;;5047943;28;20387;-71
2022/05/28 06:39:22;;;;;;;1.92;1.40;;;18.80;99.90;;;;;;5038463;28;20124;-71
2022/05/28 06:41:49;;;;;;;1.48;0.90;;;18.60;99.90;;;;;;5050757;28;20013;-71
2022/05/28 06:44:16;;;;;;;1.35;0.77;;;18.50;99.90;;;;;;5049240;28;20029;-71
2022/05/28 06:46:44;;;;;;;2.13;0.90;;;18.30;99.90;;;;;;5045328;28;20086;-70
2022/05/28 06:49:11;;;;;;;2.03;1.50;;;18.20;99.90;;;;;;5035944;28;20045;-71
2022/05/28 06:51:39;;;;;;;1.60;1.10;;;18.00;99.90;;;;;;5050723;28;20506;-71
2022/05/28 06:54:07;;;;;;;1.23;1.10;;;17.90;99.90;;;;;;5037743;28;20030;-72
2022/05/28 06:56:34;;;;;;;2.95;1.60;;;17.80;99.90;;;;;;5048100;28;20033;-72
2022/05/28 06:59:02;;;;;;;2.75;1.52;;;17.70;99.90;;;;;;5048430;28;20383;-72
2022/05/28 07:01:29;;;;;;;3.55;2.47;;;17.60;99.90;;;;;;5030498;28;20025;-72
2022/05/28 07:03:57;;;;;;;4.13;3.10;;;17.40;99.90;;;;;;5030219;28;20033;-72
2022/05/28 07:06:27;;;;;;;6.63;4.35;;;17.30;99.90;;;;;;5049949;28;20104;-72
2022/05/28 07:08:54;;;;;;;4.72;3.20;;;17.20;99.90;;;;;;5035925;28;20037;-72
2022/05/28 07:11:21;;;;;;;5.65;3.88;;;17.10;99.90;;;;;;5053810;28;20452;-70
2022/05/28 07:13:49;;;;;;;5.03;3.33;;;17.00;99.90;;;;;;5053604;28;20037;-70
2022/05/28 07:16:16;;;;;;;4.40;3.17;;;16.90;99.90;;;;;;5050459;28;20021;-71
2022/05/28 07:18:44;;;;;;;3.85;2.78;;;16.80;99.90;;;;;;5043671;28;20547;-71
2022/05/28 07:21:12;;;;;;;4.75;2.25;;;16.70;99.90;;;;;;5048767;28;20029;-71
2022/05/28 07:23:40;;;;;;;2.28;1.30;;;16.60;99.90;;;;;;5052960;28;20100;-72
2022/05/28 07:26:14;;;;;;;1.75;1.00;;;16.60;99.90;;;;;;5045709;28;20033;-71
2022/05/28 07:28:43;;;;;;;1.50;0.90;;;16.40;99.90;;;;;;5045098;28;20037;-71
2022/05/28 07:31:13;;;;;;;1.88;1.20;;;16.40;99.90;;;;;;5034434;28;20034;-71
2022/05/28 07:33:43;;;;;;;1.48;0.85;;;16.30;99.90;;;;;;5034762;28;20035;-70
2022/05/28 07:36:14;;;;;;;4.95;1.02;;;16.20;99.90;;;;;;5046271;28;20022;-72
2022/05/28 07:38:42;;;;;;;3.20;2.20;;;16.10;99.90;;;;;;5034402;28;20029;-71
2022/05/28 07:41:13;;;;;;;3.22;2.22;;;16.00;99.90;;;;;;5049495;28;20036;-71
2022/05/28 07:43:41;;;;;;;4.72;2.50;;;16.00;99.90;;;;;;5054557;28;20025;-70
2022/05/28 07:46:16;;;;;;;4.25;2.47;;;15.90;99.90;;;;;;5051571;28;20029;-71
2022/05/28 07:48:43;;;;;;;2.70;1.85;;;15.90;99.90;;;;;;5041791;28;20041;-71
2022/05/28 07:51:12;;;;;;;1.85;1.35;;;15.90;99.90;;;;;;5040177;28;20036;-71
2022/05/28 07:53:40;;;;;;;1.30;1.10;;;15.80;99.90;;;;;;5039794;28;20021;-71
2022/05/28 07:56:08;;;;;;;1.63;1.15;;;15.80;99.90;;;;;;5051817;28;20067;-71
2022/05/28 07:58:36;;;;;;;2.58;1.50;;;15.80;99.90;;;;;;5053452;28;20719;-71
2022/05/28 08:01:04;;;;;;;5.32;2.40;;;15.80;99.90;;;;;;5051171;28;20411;-71
2022/05/28 08:03:32;;;;;;;4.53;2.85;;;15.70;99.90;;;;;;5051085;28;20551;-71
2022/05/28 08:05:59;;;;;;;3.92;2.25;;;15.60;99.90;;;;;;5041646;28;20047;-70
2022/05/28 08:08:28;;;;;;;5.15;2.58;;;15.60;99.90;;;;;;5033280;28;20021;-72
2022/05/28 08:10:56;;;;;;;7.78;3.80;;;15.50;99.90;;;;;;5047947;28;20447;-72
2022/05/28 08:13:25;;;;;;;7.53;4.28;;;15.50;99.90;;;;;;5051334;28;20032;-71
2022/05/28 08:15:54;;;;;;;8.02;5.13;;;15.40;99.90;;;;;;5045342;28;20079;-71
2022/05/28 08:18:24;;;;;;;7.65;4.53;;;15.40;99.90;;;;;;5036722;28;20399;-71
2022/05/28 08:23:38;;;;;;;4.72;2.83;;;15.30;99.90;;;;;;5039161;28;20032;-71
2022/05/28 08:26:05;;;;;;;2.40;2.00;;;15.30;99.90;;;;;;5034851;28;20029;-71
2022/05/28 08:28:35;;;;;;;2.95;1.92;;;15.30;99.90;;;;;;5040522;28;20116;-71
2022/05/28 08:31:02;;;;;;;3.38;2.13;;;15.30;99.90;;;;;;5042954;28;20061;-71
2022/05/28 08:33:29;;;;;;;2.50;1.80;;;15.20;99.90;;;;;;5053183;28;20433;-72
2022/05/28 08:35:57;;;;;;;2.60;1.80;;;15.10;99.90;;;;;;5035830;28;20108;-72
2022/05/28 08:38:25;;;;;;;11.43;7.35;;;15.10;99.90;;;;;;5040813;28;20121;-71
2022/05/28 08:41:01;;;;;;;13.00;8.45;;;15.00;99.90;;;;;;5049128;28;20033;-72
2022/05/28 08:43:33;;;;;;;8.65;5.80;;;14.90;99.90;;;;;;5052664;28;20428;-71
2022/05/28 08:46:00;;;;;;;8.57;6.10;;;14.90;99.90;;;;;;5051040;28;20064;-72
2022/05/28 08:48:47;;;;;;;10.75;7.68;;;14.90;99.90;;;;;;5050797;28;20110;-72
2022/05/28 08:51:40;;;;;;;11.45;7.45;;;14.90;99.90;;;;;;5048260;28;20021;-72
2022/05/28 08:54:25;;;;;;;12.18;8.55;;;14.90;99.90;;;;;;5035978;28;20395;-70
2022/05/28 08:56:58;;;;;;;7.90;6.17;;;14.80;99.90;;;;;;5050793;28;20056;-71
2022/05/28 08:59:41;;;;;;;8.48;6.80;;;14.80;99.90;;;;;;5049991;28;20364;-72
2022/05/28 09:02:16;;;;;;;7.18;5.13;;;14.70;99.90;;;;;;5052270;28;20384;-72
2022/05/28 09:04:45;;;;;;;4.60;2.85;;;14.60;99.90;;;;;;5048067;28;20391;-72
2022/05/28 09:07:14;;;;;;;2.15;1.55;;;14.60;99.90;;;;;;5052604;28;20017;-72
2022/05/28 09:09:49;;;;;;;2.88;1.38;;;14.60;99.90;;;;;;5050276;28;20068;-71
2022/05/28 09:12:43;;;;;;;4.35;2.53;;;14.60;99.90;;;;;;5050208;28;20384;-72
2022/05/28 09:15:10;;;;;;;6.68;3.05;;;14.60;99.90;;;;;;5050477;28;20020;-73
2022/05/28 09:17:43;;;;;;;5.78;3.00;;;14.60;99.90;;;;;;5052053;28;20039;-70
2022/05/28 09:20:23;;;;;;;7.10;3.15;;;14.50;99.90;;;;;;5049081;28;20036;-72
2022/05/28 09:22:51;;;;;;;5.18;2.55;;;14.50;99.90;;;;;;5036161;28;20185;-72
2022/05/28 09:25:22;;;;;;;3.90;2.28;;;14.50;99.90;;;;;;5041733;28;20426;-71
2022/05/28 09:28:09;;;;;;;4.22;2.47;;;14.50;99.90;;;;;;5042837;28;20124;-73
2022/05/28 09:30:39;;;;;;;2.42;1.67;;;14.50;99.90;;;;;;5047627;28;20095;-72
2022/05/28 09:33:43;;;;;;;3.13;1.95;;;14.40;99.90;;;;;;5049857;28;20319;-71
2022/05/28 09:36:26;;;;;;;4.93;2.95;;;14.30;99.90;;;;;;5047745;28;20075;-72
2022/05/28 09:39:37;;;;;;;4.80;2.58;;;14.30;99.90;;;;;;5045931;28;20455;-72
2022/05/28 09:42:20;;;;;;;6.35;3.15;;;14.20;99.90;;;;;;5031424;28;20554;-72
2022/05/28 09:44:53;;;;;;;5.25;4.18;;;14.20;99.90;;;;;;5035893;28;20039;-72
2022/05/28 09:47:20;;;;;;;5.38;3.75;;;14.10;99.90;;;;;;5050800;28;20033;-72
2022/05/28 09:49:53;;;;;;;5.47;4.97;;;14.00;99.90;;;;;;5048941;28;20494;-72
2022/05/28 09:52:26;;;;;;;12.48;8.52;;;13.90;99.90;;;;;;5050146;28;20029;-72
2022/05/28 09:55:11;;;;;;;19.15;10.90;;;13.80;99.90;;;;;;5040979;28;20036;-72
2022/05/28 09:58:04;;;;;;;26.65;14.85;;;13.80;99.90;;;;;;5035840;28;20104;-72
2022/05/28 10:00:32;;;;;;;40.83;20.67;;;13.70;99.90;;;;;;5048191;28;20491;-72
2022/05/28 10:05:58;;;;;;;73.38;34.20;;;13.70;99.90;;;;;;5044330;28;20109;-71
2022/05/28 10:08:33;;;;;;;52.00;25.60;;;13.70;99.90;;;;;;5041838;28;20036;-74
2022/05/28 10:11:07;;;;;;;38.95;16.80;;;13.60;99.90;;;;;;5044533;28;20470;-72
2022/05/28 10:13:47;;;;;;;17.60;10.57;;;13.60;99.90;;;;;;5041018;28;20767;-70
2022/05/28 10:16:19;;;;;;;15.40;10.13;;;13.50;99.90;;;;;;5048280;28;20053;-72
2022/05/28 10:18:57;;;;;;;20.80;11.30;;;13.50;99.90;;;;;;5047405;28;20028;-71
2022/05/28 10:21:33;;;;;;;22.83;13.00;;;13.50;99.90;;;;;;5038717;28;20040;-72
2022/05/28 10:24:04;;;;;;;24.35;13.50;;;13.40;99.90;;;;;;5045846;28;20100;-72
2022/05/28 10:26:45;;;;;;;18.30;10.80;;;13.30;99.90;;;;;;5048255;28;20017;-72
2022/05/28 10:29:29;;;;;;;9.18;5.32;;;13.30;99.90;;;;;;5047528;28;22867;-73
2022/05/28 10:32:00;;;;;;;3.75;2.42;;;13.30;99.90;;;;;;5036443;28;20080;-70
2022/05/28 10:34:32;;;;;;;5.05;3.08;;;13.30;99.90;;;;;;5042971;28;20476;-73
2022/05/28 10:37:19;;;;;;;3.80;2.08;;;13.20;99.90;;;;;;5039195;28;20032;-71
2022/05/28 10:39:47;;;;;;;3.67;2.15;;;13.30;99.90;;;;;;5040052;28;20052;-72
2022/05/28 10:42:16;;;;;;;2.35;1.98;;;13.20;99.90;;;;;;5030170;28;20021;-72
2022/05/28 10:44:44;;;;;;;3.40;2.70;;;13.10;99.90;;;;;;5029072;28;21545;-72
2022/05/28 10:47:29;;;;;;;5.32;2.80;;;13.10;99.90;;;;;;5035911;28;20029;-71
2022/05/28 10:50:16;;;;;;;6.68;4.20;;;13.00;99.90;;;;;;5032857;28;20479;-71
2022/05/28 10:53:04;;;;;;;9.45;4.97;;;12.90;99.90;;;;;;5031697;28;20037;-71
2022/05/28 10:55:55;;;;;;;10.23;6.82;;;12.80;99.90;;;;;;5039618;28;20112;-71
2022/05/28 10:58:25;;;;;;;15.18;10.05;;;12.70;99.90;;;;;;5042210;28;20108;-73
2022/05/28 11:01:06;;;;;;;15.80;11.38;;;12.70;99.90;;;;;;5034041;28;20033;-71
2022/05/28 11:04:11;;;;;;;13.90;9.40;;;12.70;99.90;;;;;;5038897;28;20115;-72
2022/05/28 11:07:08;;;;;;;10.57;8.43;;;12.60;99.90;;;;;;5048803;28;20033;-74
2022/05/28 11:10:01;;;;;;;10.07;7.38;;;12.60;99.90;;;;;;5033757;28;20086;-73
2022/05/28 11:12:42;;;;;;;10.90;7.15;;;12.60;99.90;;;;;;5029638;28;20049;-73
2022/05/28 11:15:44;;;;;;;7.72;5.90;;;12.60;99.90;;;;;;5038644;28;20067;-74
2022/05/28 11:18:37;;;;;;;7.53;5.45;;;12.50;99.90;;;;;;5016346;28;20036;-73
2022/05/28 11:21:33;;;;;;;6.43;4.30;;;12.60;99.90;;;;;;5032893;28;20491;-74
2022/05/28 11:24:16;;;;;;;5.35;3.85;;;12.60;99.90;;;;;;5030335;28;20033;-73
2022/05/28 11:27:12;;;;;;;5.40;3.47;;;12.60;99.90;;;;;;5028582;28;20317;-72
2022/05/28 11:29:39;;;;;;;4.55;3.13;;;12.60;99.90;;;;;;5033631;28;20127;-72
2022/05/28 11:32:23;;;;;;;3.47;2.17;;;12.70;99.90;;;;;;5049460;28;20105;-73
2022/05/28 11:34:50;;;;;;;4.22;2.83;;;12.60;99.90;;;;;;5043066;28;20055;-73
2022/05/28 11:37:27;;;;;;;4.63;3.67;;;12.60;99.90;;;;;;5029882;28;20049;-72
2022/05/28 11:40:10;;;;;;;4.75;3.45;;;12.50;99.90;;;;;;5031206;28;20044;-72
2022/05/28 11:42:58;;;;;;;4.88;3.67;;;12.40;99.90;;;;;;5029477;28;20018;-73
2022/05/28 11:45:41;;;;;;;6.85;4.35;;;12.30;99.90;;;;;;5040735;28;20123;-73
2022/05/28 11:48:17;;;;;;;5.00;4.35;;;12.20;99.90;;;;;;5048940;28;20049;-73
2022/05/28 11:53:47;;;;;;;3.88;3.17;;;12.20;99.90;;;;;;5028923;28;20087;-73
2022/05/28 11:56:19;;;;;;;5.00;3.50;;;12.10;99.90;;;;;;5037424;28;20033;-72
2022/05/28 11:58:51;;;;;;;6.93;3.20;;;12.10;99.90;;;;;;5031885;28;20026;-73
2022/05/28 12:01:22;;;;;;;3.97;3.10;;;12.10;99.90;;;;;;5034509;28;20037;-73
2022/05/28 12:03:52;;;;;;;4.10;2.17;;;12.10;99.90;;;;;;5038922;28;20036;-72
2022/05/28 12:06:36;;;;;;;2.92;2.63;;;12.10;99.90;;;;;;5044538;28;20040;-72
2022/05/28 12:09:06;;;;;;;3.10;2.30;;;12.00;99.90;;;;;;5041565;28;20451;-72
2022/05/28 12:11:44;;;;;;;3.83;3.05;;;12.00;99.90;;;;;;5039015;28;20093;-72
2022/05/28 12:14:31;;;;;;;4.53;2.58;;;12.00;99.90;;;;;;5049112;28;20048;-73
2022/05/28 12:17:08;;;;;;;1.98;1.77;;;12.00;99.90;;;;;;5046068;28;20098;-73
2022/05/28 12:19:49;;;;;;;6.88;2.30;;;12.00;99.90;;;;;;5047923;28;20029;-73
2022/05/28 12:22:48;;;;;;;3.33;2.00;;;12.00;99.90;;;;;;5045031;28;20021;-72
2022/05/28 12:25:16;;;;;;;2.40;1.70;;;12.00;99.90;;;;;;5038728;28;20095;-73
2022/05/28 12:28:08;;;;;;;2.65;1.23;;;12.00;99.90;;;;;;5042582;28;20525;-72
2022/05/28 12:30:44;;;;;;;2.10;1.30;;;11.90;99.90;;;;;;5037228;28;20028;-71
2022/05/28 12:33:32;;;;;;;2.83;1.00;;;11.90;99.90;;;;;;5043885;28;20071;-73
2022/05/28 12:36:09;;;;;;;0.98;0.60;;;11.90;99.90;;;;;;5031517;28;20037;-73
2022/05/28 12:38:49;;;;;;;0.80;0.50;;;12.00;99.90;;;;;;5034019;28;20090;-73
2022/05/28 12:41:26;;;;;;;0.88;0.50;;;12.00;99.90;;;;;;5034758;28;20723;-73
2022/05/28 12:44:22;;;;;;;0.52;0.47;;;12.00;99.90;;;;;;5034823;28;20029;-73
2022/05/28 12:47:00;;;;;;;0.65;0.40;;;12.00;99.90;;;;;;5035729;28;20444;-73
2022/05/28 12:49:27;;;;;;;1.45;0.60;;;12.00;99.90;;;;;;5049991;28;20064;-72
2022/05/28 12:52:13;;;;;;;5.80;3.38;;;12.00;99.90;;;;;;5042588;28;20384;-73
2022/05/28 12:54:42;;;;;;;3.72;2.70;;;11.90;99.90;;;;;;5041203;28;20654;-72
2022/05/28 12:57:47;;;;;;;3.80;2.22;;;11.80;99.90;;;;;;5030462;28;20113;-72
2022/05/28 13:00:21;;;;;;;3.47;2.25;;;11.80;99.90;;;;;;5025466;28;20038;-73
2022/05/28 13:02:50;;;;;;;1.98;1.50;;;11.60;99.90;;;;;;5043918;28;20489;-73
2022/05/28 13:05:42;;;;;;;3.63;2.40;;;11.50;99.90;;;;;;5037366;28;20021;-72
2022/05/28 13:08:11;;;;;;;2.50;1.50;;;11.50;99.90;;;;;;5033519;28;20033;-72
2022/05/28 13:10:55;;;;;;;2.55;1.90;;;11.30;99.90;;;;;;5032218;28;20618;-72
2022/05/28 13:13:28;;;;;;;2.58;2.15;;;11.30;99.90;;;;;;5031993;28;20507;-72
2022/05/28 13:15:58;;;;;;;3.17;2.17;;;11.20;99.90;;;;;;5033731;28;20083;-73
2022/05/28 13:18:44;;;;;;;3.72;2.45;;;11.20;99.90;;;;;;5036280;28;20017;-73
2022/05/28 13:21:43;;;;;;;3.05;1.92;;;11.20;99.90;;;;;;5047792;28;20102;-72
2022/05/28 13:24:43;;;;;;;3.45;1.67;;;11.20;99.90;;;;;;5031872;28;20456;-72
2022/05/28 13:27:46;;;;;;;2.50;1.85;;;11.20;99.90;;;;;;5033883;28;20063;-72